.
WxDataArchive / Data Records for 2006-07-28
2006-07-27 July 2006 2006-07-29

Data Records for Friday, 28 July 2006

Time	Temp	Chill	HIndex	Humid	Dewpt	 Wind 	HiWind	WindDir	Rain 	Barom 
-----	----	-----	------	-----	-----	------	------	-------	-----	----- 
00:00	73.0	73.0	73.0	93	70.8	0	0	---	0.01	29.793 
00:05	73.0	73.0	73.0	93	70.8	0	1	248	0.00	29.793 
00:10	73.0	73.0	73.0	94	71.2	0	0	---	0.00	29.793 
00:15	73.0	73.0	73.0	94	71.2	0	2	248	0.00	29.800 
00:20	73.0	73.0	73.0	94	71.2	0	2	248	0.00	29.800 
00:25	73.2	73.2	73.2	94	71.4	0	2	248	0.00	29.800 
00:30	73.2	73.2	73.2	94	71.4	1	3	248	0.00	29.829 
00:35	73.2	73.2	73.2	94	71.4	1	3	270	0.00	29.829 
00:40	72.8	72.8	72.8	94	71.0	1	3	270	0.00	29.829 
00:45	72.7	72.7	72.7	94	70.9	1	4	270	0.00	29.835 
00:50	72.5	72.5	72.5	94	70.7	0	1	248	0.01	29.835 
00:55	72.3	72.3	72.3	94	70.5	0	1	248	0.00	29.835 
01:00	72.3	72.3	72.3	94	70.5	0	1	248	0.00	29.838 
01:05	72.1	72.1	72.1	94	70.3	0	1	248	0.00	29.838 
01:10	72.0	72.0	72.0	94	70.2	0	1	248	0.00	29.838 
01:15	72.0	72.0	72.0	94	70.2	0	0	---	0.00	29.841 
01:20	72.0	72.0	72.0	94	70.2	0	1	248	0.01	29.841 
01:25	71.8	71.8	71.8	94	70.0	0	1	248	0.00	29.841 
01:30	71.8	71.8	71.8	95	70.3	0	0	---	0.00	29.846 
01:35	72.0	72.0	72.0	95	70.5	0	1	248	0.00	29.846 
01:40	72.1	72.1	72.1	95	70.6	0	0	---	0.00	29.846 
01:45	72.1	72.1	72.1	95	70.6	0	1	248	0.00	29.848 
01:50	72.1	72.1	72.1	95	70.6	0	1	248	0.00	29.848 
01:55	72.1	72.1	72.1	95	70.6	0	1	248	0.00	29.848 
02:00	72.1	72.1	72.1	95	70.6	0	1	248	0.00	29.845 
02:05	72.1	72.1	72.1	95	70.6	0	1	248	0.00	29.845 
02:10	72.0	72.0	72.0	95	70.5	0	1	248	0.00	29.845 
02:15	72.0	72.0	72.0	95	70.5	0	2	248	0.00	29.841 
02:20	71.8	71.8	71.8	95	70.3	0	2	248	0.00	29.841 
02:25	71.6	71.6	71.6	95	70.1	1	3	248	0.00	29.841 
02:30	71.5	71.5	71.5	95	70.0	0	3	248	0.00	29.842 
02:35	71.5	71.5	71.5	95	70.0	1	3	248	0.00	29.842 
02:40	71.3	71.3	71.3	95	69.8	1	3	248	0.00	29.842 
02:45	71.3	71.3	71.3	95	69.8	0	1	248	0.00	29.850 
02:50	71.1	71.1	71.1	95	69.6	0	2	248	0.01	29.850 
02:55	71.1	71.1	71.1	95	69.6	1	2	248	0.00	29.850 
03:00	71.1	71.1	71.1	95	69.6	1	5	248	0.00	29.843 
03:05	70.9	70.9	70.9	95	69.4	1	2	248	0.00	29.843 
03:10	70.9	70.9	70.9	95	69.4	1	3	248	0.00	29.843 
03:15	70.8	70.8	70.8	95	69.3	1	3	248	0.00	29.844 
03:20	70.6	70.6	70.6	95	69.1	1	6	248	0.00	29.844 
03:25	70.6	70.6	70.6	95	69.1	2	5	248	0.00	29.844 
03:30	70.6	70.6	70.6	95	69.1	2	3	248	0.00	29.856 
03:35	70.4	70.4	70.4	95	68.9	1	4	248	0.00	29.856 
03:40	70.4	70.4	70.4	95	68.9	1	5	248	0.00	29.856 
03:45	70.4	70.4	70.4	95	68.9	1	5	248	0.00	29.856 
03:50	70.3	70.3	70.3	95	68.8	1	4	248	0.00	29.856 
03:55	70.3	70.3	70.3	95	68.8	1	2	248	0.00	29.856 
04:00	70.3	70.3	70.3	95	68.8	1	4	248	0.00	29.859 
04:05	70.1	70.1	70.1	95	68.6	2	5	248	0.00	29.859 
04:10	70.1	70.1	70.1	95	68.6	2	4	248	0.00	29.859 
04:15	70.1	70.1	70.1	95	68.6	1	3	270	0.00	29.859 
04:20	69.9	69.9	69.9	94	68.1	1	5	248	0.00	29.859 
04:25	69.9	69.9	69.9	94	68.1	1	3	248	0.00	29.859 
04:30	69.9	69.9	69.9	94	68.1	0	2	248	0.00	29.869 
04:35	69.9	69.9	69.9	94	68.1	0	2	248	0.00	29.869 
04:40	69.8	69.8	69.8	94	68.0	1	3	248	0.00	29.869 
04:45	69.8	69.8	69.8	94	68.0	1	2	248	0.00	29.873 
04:50	69.8	69.8	69.8	94	68.0	0	2	248	0.00	29.873 
04:55	69.8	69.8	69.8	94	68.0	0	2	248	0.00	29.873 
05:00	69.8	69.8	69.8	94	68.0	0	1	248	0.00	29.863 
05:05	69.8	69.8	69.8	94	68.0	1	2	248	0.00	29.863 
05:10	69.8	69.8	69.8	94	68.0	0	2	248	0.00	29.863 
05:15	69.6	69.6	69.6	94	67.8	0	2	248	0.00	29.866 
05:20	69.6	69.6	69.6	94	67.8	0	1	248	0.00	29.866 
05:25	69.6	69.6	69.6	95	68.1	0	1	248	0.00	29.866 
05:30	69.6	69.6	69.6	95	68.1	0	1	248	0.00	29.875 
05:35	69.6	69.6	69.6	95	68.1	0	1	248	0.00	29.875 
05:40	69.6	69.6	69.6	95	68.1	0	3	248	0.00	29.875 
05:45	69.6	69.6	69.6	95	68.1	1	2	248	0.00	29.875 
05:50	69.6	69.6	69.6	95	68.1	1	2	225	0.00	29.875 
05:55	69.4	69.4	69.4	95	67.9	1	2	225	0.00	29.875 
06:00	69.4	69.4	69.4	95	67.9	1	3	225	0.00	29.879 
06:05	69.4	69.4	69.4	95	67.9	0	4	225	0.00	29.879 
06:10	69.4	69.4	69.4	95	67.9	1	3	248	0.00	29.879 
06:15	69.3	69.3	69.3	95	67.8	0	2	248	0.00	29.881 
06:20	69.3	69.3	69.3	95	67.8	1	2	248	0.00	29.881 
06:25	69.3	69.3	69.3	95	67.8	1	2	248	0.00	29.881 
06:30	69.3	69.3	69.3	95	67.8	1	3	248	0.00	29.884 
06:35	69.3	69.3	69.3	95	67.8	1	3	248	0.00	29.884 
06:40	69.3	69.3	69.3	95	67.8	1	3	248	0.00	29.884 
06:45	69.3	69.3	69.3	95	67.8	1	4	248	0.00	29.882 
06:50	69.1	69.1	69.1	95	67.6	0	2	248	0.00	29.882 
06:55	69.1	69.1	69.1	95	67.6	1	2	248	0.00	29.882 
07:00	69.1	69.1	69.1	95	67.6	0	2	248	0.00	29.883 
07:05	69.1	69.1	69.1	95	67.6	0	1	248	0.00	29.883 
07:10	69.1	69.1	69.1	95	67.6	0	2	248	0.00	29.883 
07:15	69.3	69.3	69.3	95	67.8	0	3	248	0.00	29.890 
07:20	69.3	69.3	69.3	95	67.8	0	2	248	0.00	29.890 
07:25	69.4	69.4	69.4	95	67.9	0	1	248	0.00	29.890 
07:30	69.6	69.6	69.6	95	68.1	0	1	248	0.00	29.894 
07:35	69.6	69.6	69.6	95	68.1	0	1	248	0.00	29.894 
07:40	69.8	69.8	69.8	95	68.3	0	1	248	0.00	29.894 
07:45	69.8	69.8	69.8	95	68.3	0	2	248	0.00	29.899 
07:50	69.9	69.9	69.9	94	68.1	0	1	248	0.00	29.899 
07:55	69.9	69.9	69.9	94	68.1	0	1	248	0.00	29.899 
08:00	70.1	70.1	70.1	94	68.3	0	1	248	0.00	29.904 
08:05	70.3	70.3	70.3	94	68.5	0	1	248	0.00	29.904 
08:10	70.4	70.4	70.4	94	68.6	0	2	248	0.00	29.904 
08:15	70.4	70.4	70.4	94	68.6	0	2	248	0.00	29.907 
08:20	70.6	70.6	70.6	93	68.5	0	1	248	0.00	29.907 
08:25	70.8	70.8	70.8	93	68.7	0	1	248	0.00	29.907 
08:30	70.9	70.9	70.9	93	68.8	0	2	225	0.00	29.907 
08:35	71.1	71.1	71.1	93	69.0	1	3	248	0.00	29.907 
08:40	71.3	71.3	71.3	93	69.2	0	1	248	0.00	29.907 
08:45	71.3	71.3	71.3	92	68.8	1	3	248	0.00	29.909 
08:50	71.6	71.6	71.6	92	69.1	0	1	248	0.00	29.909 
08:55	71.8	71.8	71.8	92	69.3	1	2	248	0.00	29.909 
09:00	71.8	71.8	71.8	92	69.3	1	2	248	0.00	29.916 
09:05	72.0	72.0	72.0	91	69.2	1	2	248	0.00	29.916 
09:10	72.0	72.0	72.0	91	69.2	0	1	248	0.00	29.916 
09:15	72.1	72.1	72.1	91	69.3	0	2	248	0.00	29.920 
09:20	72.1	72.1	72.1	91	69.3	0	1	248	0.00	29.920 
09:25	72.3	72.3	72.3	91	69.5	0	1	248	0.00	29.920 
09:30	72.5	72.5	72.5	91	69.7	0	1	248	0.00	29.913 
09:35	72.8	72.8	72.8	91	70.0	0	1	248	0.00	29.913 
09:40	73.0	73.0	73.0	90	69.9	1	2	248	0.00	29.913 
09:45	73.2	73.2	73.2	90	70.1	0	2	248	0.00	29.922 
09:50	73.3	73.3	73.3	89	69.9	0	1	248	0.00	29.922 
09:55	73.7	73.7	73.7	89	70.2	0	1	248	0.00	29.922 
10:00	74.0	74.0	74.0	88	70.2	1	2	248	0.00	29.922 
10:05	74.6	74.6	74.6	88	70.8	1	2	248	0.00	29.922 
10:10	75.1	75.1	74.6	88	71.3	1	2	248	0.00	29.922 
10:15	75.6	75.6	75.8	86	71.1	1	3	270	0.00	29.921 
10:20	76.0	76.0	76.7	84	70.8	1	2	315	0.00	29.921 
10:25	76.1	76.1	76.8	84	70.9	1	4	225	0.00	29.921 
10:30	76.7	76.7	77.9	84	71.5	1	2	248	0.00	29.921 
10:35	76.8	76.8	78.1	84	71.6	1	2	248	0.00	29.921 
10:40	76.8	76.8	78.1	83	71.2	1	3	248	0.00	29.921 
10:45	76.8	76.8	78.1	83	71.2	1	3	248	0.00	29.923 
10:50	76.8	76.8	78.1	83	71.2	1	2	270	0.00	29.923 
10:55	76.8	76.8	78.2	82	70.9	1	3	270	0.00	29.923 
11:00	76.8	76.8	78.2	82	70.9	0	3	270	0.00	29.924 
11:05	76.8	76.8	78.1	83	71.2	1	2	270	0.00	29.924 
11:10	77.0	77.0	78.5	82	71.1	1	3	270	0.00	29.924 
11:15	77.0	77.0	78.5	82	71.1	1	3	248	0.00	29.929 
11:20	77.0	77.0	78.5	83	71.4	1	3	248	0.00	29.929 
11:25	76.8	76.8	78.1	83	71.2	1	2	248	0.00	29.929 
11:30	76.8	76.8	78.1	83	71.2	1	2	248	0.00	29.935 
11:35	77.0	77.0	78.5	83	71.4	1	3	248	0.00	29.935 
11:40	77.2	77.2	78.8	83	71.6	1	2	248	0.00	29.935 
11:45	77.6	77.6	79.6	81	71.3	1	2	270	0.00	29.934 
11:50	77.9	77.9	80.1	81	71.6	1	2	292	0.00	29.934 
11:55	78.1	78.1	80.5	81	71.8	1	2	270	0.00	29.934 
12:00	78.6	78.6	81.4	79	71.5	1	3	270	0.00	29.931 
12:05	79.0	79.0	82.0	78	71.5	1	3	270	0.00	29.931 
12:10	79.2	79.2	82.3	77	71.3	1	3	270	0.00	29.931 
12:15	79.2	79.2	82.3	77	71.3	1	4	248	0.00	29.934 
12:20	79.0	79.0	82.0	78	71.5	1	3	270	0.00	29.934 
12:25	79.2	79.2	82.4	78	71.7	1	3	270	0.00	29.934 
12:30	79.2	79.2	82.4	78	71.7	1	2	270	0.00	29.934 
12:35	79.2	79.2	82.4	78	71.7	1	3	270	0.00	29.934 
12:40	79.4	79.4	82.7	77	71.5	1	2	270	0.00	29.934 
12:45	79.6	79.6	83.1	77	71.7	1	3	270	0.00	29.933 
12:50	79.6	79.6	83.1	77	71.7	1	3	225	0.00	29.933 
12:55	79.6	79.6	83.2	78	72.1	0	2	225	0.00	29.933 
13:00	79.8	79.8	83.6	78	72.3	1	3	248	0.00	29.933 
13:05	80.1	80.1	84.0	77	72.2	2	4	248	0.00	29.933 
13:10	80.1	80.1	83.9	76	71.8	1	3	248	0.00	29.933 
13:15	79.8	79.8	83.4	77	71.9	1	3	248	0.00	29.934 
13:20	79.6	79.6	83.2	78	72.1	1	3	248	0.00	29.934 
13:25	79.9	79.9	84.1	81	73.5	1	4	248	0.00	29.934 
13:30	80.9	80.9	85.7	77	73.0	2	4	248	0.00	29.934 
13:35	81.1	81.1	85.7	75	72.4	1	4	248	0.00	29.934 
13:40	80.9	80.9	85.8	78	73.4	1	3	248	0.00	29.934 
13:45	80.9	80.9	85.5	76	72.6	1	5	270	0.00	29.933 
13:50	80.9	80.9	85.5	76	72.6	1	4	270	0.00	29.933 
13:55	81.1	81.1	86.5	79	73.9	1	3	248	0.00	29.933 
14:00	81.8	81.8	87.4	76	73.5	1	3	248	0.00	29.931 
14:05	81.8	81.8	87.1	75	73.1	1	3	270	0.00	29.931 
14:10	82.0	82.0	87.3	74	72.9	2	3	270	0.00	29.931 
14:15	82.4	82.4	88.2	74	73.3	1	4	270	0.00	29.932 
14:20	83.0	83.0	89.2	73	73.4	2	3	292	0.00	29.932 
14:25	83.4	83.4	89.8	72	73.4	2	4	292	0.00	29.932 
14:30	83.8	83.8	90.4	71	73.4	1	3	292	0.00	29.931 
14:35	83.4	83.4	89.2	70	72.6	1	3	292	0.00	29.931 
14:40	83.8	83.8	90.4	71	73.4	2	3	248	0.00	29.931 
14:45	84.3	84.3	91.8	72	74.3	2	4	248	0.00	29.930 
14:50	84.7	84.7	91.7	69	73.4	2	4	248	0.00	29.930 
14:55	84.5	84.5	91.2	69	73.2	2	6	248	0.00	29.930 
15:00	84.7	84.7	91.0	67	72.5	2	3	315	0.00	29.927 
15:05	84.7	84.7	91.0	67	72.5	3	5	248	0.00	29.927 
15:10	84.9	84.9	91.4	67	72.7	1	3	225	0.00	29.927 
15:15	84.9	84.9	91.0	66	72.2	2	4	270	0.00	29.930 
15:20	85.5	85.5	91.9	65	72.4	2	4	292	0.00	29.930 
15:25	85.5	85.5	91.9	65	72.4	2	5	270	0.00	29.930 
15:30	85.1	85.1	91.1	65	72.0	2	4	270	0.00	29.928 
15:35	84.7	84.7	90.6	66	72.1	1	4	270	0.00	29.928 
15:40	85.1	85.1	91.5	66	72.4	1	3	292	0.00	29.928 
15:45	85.3	85.3	91.5	65	72.2	2	3	270	0.00	29.921 
15:50	85.9	85.9	92.0	63	71.8	2	6	248	0.00	29.921 
15:55	85.7	85.7	91.6	63	71.6	1	5	248	0.00	29.921 
16:00	85.3	85.3	91.5	65	72.2	1	3	315	0.00	29.918 
16:05	85.7	85.7	91.6	63	71.6	2	4	270	0.00	29.918 
16:10	86.1	86.1	92.8	64	72.5	1	4	315	0.00	29.918 
16:15	86.3	86.3	92.8	63	72.2	2	5	270	0.00	29.915 
16:20	86.7	86.7	93.3	62	72.1	2	4	248	0.00	29.915 
16:25	86.5	86.5	92.8	62	71.9	2	4	270	0.00	29.915 
16:30	86.3	86.3	92.4	62	71.7	2	5	270	0.00	29.916 
16:35	86.1	86.1	92.4	63	72.0	1	3	315	0.00	29.916 
16:40	85.3	85.3	90.8	63	71.2	1	3	248	0.00	29.916 
16:45	85.3	85.3	91.2	64	71.7	1	2	315	0.00	29.916 
16:50	85.3	85.3	91.2	64	71.7	1	3	315	0.00	29.916 
16:55	85.3	85.3	91.2	64	71.7	1	3	338	0.00	29.916 
17:00	85.5	85.5	91.6	64	71.9	2	4	270	0.00	29.911 
17:05	85.5	85.5	91.6	64	71.9	1	3	270	0.00	29.911 
17:10	85.7	85.7	91.6	63	71.6	1	3	292	0.00	29.911 
17:15	85.9	85.9	91.6	62	71.3	2	4	270	0.00	29.912 
17:20	85.5	85.5	91.2	63	71.4	1	2	270	0.00	29.912 
17:25	85.5	85.5	91.2	63	71.4	1	3	292	0.00	29.912 
17:30	85.9	85.9	91.3	61	70.9	1	3	270	0.00	29.908 
17:35	86.1	86.1	91.3	60	70.6	1	3	292	0.00	29.908 
17:40	86.1	86.1	91.7	61	71.0	2	4	270	0.00	29.908 
17:45	86.1	86.1	92.0	62	71.5	1	3	270	0.00	29.910 
17:50	85.9	85.9	91.3	61	70.9	1	4	292	0.00	29.910 
17:55	86.1	86.1	91.3	60	70.6	1	3	292	0.00	29.910 
18:00	86.1	86.1	92.0	62	71.5	1	4	292	0.00	29.907 
18:05	85.9	85.9	91.6	62	71.3	0	2	338	0.00	29.907 
18:10	85.7	85.7	91.2	62	71.1	1	2	338	0.00	29.907 
18:15	85.7	85.7	90.9	61	70.7	1	3	315	0.00	29.904 
18:20	85.9	85.9	91.3	61	70.9	1	3	270	0.00	29.904 
18:25	85.9	85.9	91.6	62	71.3	1	2	270	0.00	29.904 
18:30	85.7	85.7	91.2	62	71.1	1	3	270	0.00	29.902 
18:35	85.5	85.5	90.8	62	71.0	2	3	270	0.00	29.902 
18:40	85.3	85.3	90.5	62	70.8	1	3	315	0.00	29.902 
18:45	85.5	85.5	91.6	64	71.9	1	2	270	0.00	29.900 
18:50	85.5	85.5	91.2	63	71.4	1	3	248	0.00	29.900 
18:55	85.5	85.5	90.8	62	71.0	0	2	248	0.00	29.900 
19:00	85.5	85.5	90.8	62	71.0	0	2	270	0.00	29.900 
19:05	85.3	85.3	90.5	62	70.8	0	2	270	0.00	29.900 
19:10	85.3	85.3	91.2	64	71.7	0	2	315	0.00	29.900 
19:15	85.1	85.1	90.1	62	70.6	0	2	315	0.00	29.901 
19:20	85.1	85.1	90.1	62	70.6	0	3	248	0.00	29.901 
19:25	84.9	84.9	89.7	62	70.4	0	3	248	0.00	29.901 
19:30	84.9	84.9	90.0	63	70.9	0	1	248	0.00	29.901 
19:35	84.7	84.7	90.0	64	71.1	0	1	270	0.00	29.901 
19:40	84.5	84.5	89.6	64	71.0	0	2	248	0.00	29.901 
19:45	84.5	84.5	89.6	64	71.0	1	2	248	0.00	29.902 
19:50	84.3	84.3	89.2	64	70.8	0	2	248	0.00	29.902 
19:55	84.1	84.1	88.5	63	70.1	0	1	248	0.00	29.902 
20:00	84.1	84.1	88.8	64	70.6	0	1	248	0.00	29.902 
20:05	84.0	84.0	88.9	65	70.9	0	1	248	0.00	29.902 
20:10	83.8	83.8	88.6	65	70.7	0	1	248	0.00	29.902 
20:15	83.4	83.4	88.4	67	71.3	0	1	248	0.00	29.901 
20:20	83.2	83.2	88.2	68	71.5	0	0	---	0.00	29.901 
20:25	82.8	82.8	87.5	68	71.1	0	0	---	0.00	29.901 
20:30	82.6	82.6	87.3	69	71.4	0	0	---	0.00	29.902 
20:35	82.4	82.4	87.0	69	71.2	0	0	---	0.00	29.902 
20:40	82.2	82.2	86.8	70	71.4	0	1	248	0.00	29.902 
20:45	82.0	82.0	86.4	70	71.2	0	0	---	0.00	29.903 
20:50	81.8	81.8	86.3	71	71.5	0	0	---	0.00	29.903 
20:55	81.6	81.6	85.9	71	71.3	0	0	---	0.00	29.903 
21:00	81.2	81.2	85.3	72	71.3	0	0	---	0.00	29.906 
21:05	81.1	81.1	85.3	73	71.6	0	0	---	0.00	29.906 
21:10	80.7	80.7	84.6	73	71.2	0	0	---	0.00	29.906 
21:15	80.5	80.5	84.4	74	71.4	0	0	---	0.00	29.916 
21:20	80.3	80.3	84.0	74	71.2	0	0	---	0.00	29.916 
21:25	79.9	79.9	83.4	75	71.2	0	0	---	0.00	29.916 
21:30	79.8	79.8	83.3	76	71.5	0	0	---	0.00	29.917 
21:35	79.4	79.4	82.7	77	71.5	0	0	---	0.00	29.917 
21:40	79.0	79.0	82.0	78	71.5	0	0	---	0.00	29.917 
21:45	78.6	78.6	81.4	79	71.5	0	0	---	0.00	29.925 
21:50	78.3	78.3	80.8	80	71.6	0	0	---	0.00	29.925 
21:55	77.9	77.9	80.1	81	71.6	0	0	---	0.00	29.925 
22:00	77.6	77.6	79.6	82	71.7	0	0	---	0.00	29.930 
22:05	77.4	77.4	79.2	82	71.5	0	0	---	0.00	29.930 
22:10	77.0	77.0	78.5	83	71.4	0	0	---	0.00	29.930 
22:15	76.7	76.7	77.9	84	71.5	0	0	---	0.00	29.932 
22:20	76.5	76.5	77.5	84	71.3	0	0	---	0.00	29.932 
22:25	76.3	76.3	77.1	85	71.4	0	0	---	0.00	29.932 
22:30	76.1	76.1	76.6	86	71.6	0	0	---	0.00	29.931 
22:35	75.8	75.8	76.1	86	71.3	0	0	---	0.00	29.931 
22:40	75.6	75.6	75.6	87	71.4	0	0	---	0.00	29.931 
22:45	75.4	75.4	75.3	87	71.2	0	0	---	0.00	29.924 
22:50	75.3	75.3	75.1	87	71.2	0	0	---	0.00	29.924 
22:55	75.1	75.1	74.6	88	71.3	0	0	---	0.00	29.924 
23:00	75.1	75.1	74.6	88	71.3	0	0	---	0.00	29.919 
23:05	74.9	74.9	74.9	89	71.4	0	0	---	0.00	29.919 
23:10	74.7	74.7	74.7	89	71.2	0	0	---	0.00	29.919 
23:15	74.6	74.6	74.6	89	71.1	0	0	---	0.00	29.917 
23:20	74.4	74.4	74.4	89	70.9	0	0	---	0.00	29.917 
23:25	74.4	74.4	74.4	90	71.3	0	0	---	0.00	29.917 
23:30	74.2	74.2	74.2	91	71.4	0	0	---	0.00	29.919 
23:35	74.0	74.0	74.0	91	71.2	0	0	---	0.00	29.919 
23:40	73.9	73.9	73.9	91	71.1	0	0	---	0.00	29.919 
23:45	73.9	73.9	73.9	91	71.1	0	0	---	0.00	29.919 
23:50	73.7	73.7	73.7	91	70.9	0	0	---	0.00	29.919 
23:55	73.5	73.5	73.5	91	70.7	0	0	---	0.00	29.919 

CoCoRaHS
IN-AL-39
A2 Web Hosting
Creative Commons License
GoDaddy
Look for:

loaded 2017-12-11 12:20:07 • last modified 2010-11-18 10:43:29
Privacy PolicyDisclaimer
• wx.awcolley.com is powered by PmWiki v.2002016 •
• all content (unless otherwise noted) © 2017 A W Colley